createdAt,value
2018-09-02T00:02:26.991Z,9.80
2018-09-02T00:04:55.550Z,10.50
2018-09-02T00:07:24.224Z,9.00
2018-09-02T00:09:52.780Z,18.87
2018-09-02T00:12:21.372Z,7.27
2018-09-02T00:14:50.180Z,10.73
2018-09-02T00:17:18.723Z,9.80
2018-09-02T00:19:47.299Z,7.93
2018-09-02T00:22:15.887Z,9.70
2018-09-02T00:24:44.512Z,10.33
2018-09-02T00:27:13.080Z,8.53
2018-09-02T00:29:41.735Z,13.43
2018-09-02T00:32:10.309Z,13.53
2018-09-02T00:34:38.854Z,9.83
2018-09-02T00:37:07.550Z,19.30
2018-09-02T00:39:36.112Z,8.97
2018-09-02T00:42:04.655Z,8.20
2018-09-02T00:44:33.311Z,9.30
2018-09-02T00:47:01.939Z,7.20
2018-09-02T00:49:30.476Z,8.13
2018-09-02T00:51:59.068Z,8.27
2018-09-02T00:54:27.615Z,12.93
2018-09-02T00:56:56.215Z,11.93
2018-09-02T00:59:24.787Z,7.07
2018-09-02T01:01:53.331Z,5.97
2018-09-02T01:04:21.887Z,16.10
2018-09-02T01:06:50.487Z,7.33
2018-09-02T01:09:19.030Z,9.87
2018-09-02T01:11:47.576Z,8.60
2018-09-02T01:14:16.289Z,11.40
2018-09-02T01:16:44.886Z,9.30
2018-09-02T01:19:13.438Z,4.70
2018-09-02T01:21:42.091Z,7.23
2018-09-02T01:24:10.683Z,8.90
2018-09-02T01:26:39.249Z,13.87
2018-09-02T01:29:08.002Z,16.40
2018-09-02T01:31:36.612Z,9.30
2018-09-02T01:34:05.596Z,9.60
2018-09-02T01:36:34.187Z,7.60
2018-09-02T01:39:03.017Z,14.23
2018-09-02T01:41:31.576Z,9.97
2018-09-02T01:44:00.264Z,8.87
2018-09-02T01:46:28.814Z,10.87
2018-09-02T01:48:57.367Z,4.63
2018-09-02T01:51:26.032Z,8.20
2018-09-02T01:53:54.593Z,10.33
2018-09-02T01:56:23.351Z,13.83
2018-09-02T01:58:51.939Z,10.80
2018-09-02T02:01:20.503Z,6.50
2018-09-02T02:03:49.164Z,4.43
2018-09-02T02:06:17.863Z,10.57
2018-09-02T02:08:46.411Z,9.10
2018-09-02T02:11:14.982Z,10.13
2018-09-02T02:13:43.663Z,13.17
2018-09-02T02:16:12.447Z,6.73
2018-09-02T02:18:41.007Z,7.87
2018-09-02T02:21:09.588Z,4.60
2018-09-02T02:23:38.139Z,15.63
2018-09-02T02:26:06.715Z,9.87
2018-09-02T02:28:35.292Z,11.50
2018-09-02T02:31:03.859Z,16.20
2018-09-02T02:33:32.432Z,12.47
2018-09-02T02:36:01.115Z,11.37
2018-09-02T02:38:29.679Z,7.77
2018-09-02T02:40:58.804Z,14.53
2018-09-02T02:43:27.379Z,11.40
2018-09-02T02:45:55.943Z,8.27
2018-09-02T02:48:24.491Z,12.87
2018-09-02T02:50:53.083Z,12.40
2018-09-02T02:53:21.654Z,13.17
2018-09-02T02:55:50.217Z,12.10
2018-09-02T02:58:19.084Z,15.70
2018-09-02T03:00:47.655Z,6.40
2018-09-02T03:03:16.199Z,9.33
2018-09-02T03:05:44.895Z,9.80
2018-09-02T03:08:13.477Z,7.57
2018-09-02T03:10:42.043Z,14.53
2018-09-02T03:13:11.037Z,9.73
2018-09-02T03:15:39.642Z,7.80
2018-09-02T03:18:08.199Z,12.87
2018-09-02T03:20:36.876Z,7.43
2018-09-02T03:23:05.475Z,6.73
2018-09-02T03:25:34.039Z,13.83
2018-09-02T03:28:02.723Z,8.37
2018-09-02T03:30:31.475Z,9.40
2018-09-02T03:33:00.065Z,15.10
2018-09-02T03:35:28.735Z,10.03
2018-09-02T03:37:57.331Z,7.43
2018-09-02T03:40:26.048Z,9.97
2018-09-02T03:42:54.735Z,8.57
2018-09-02T03:45:23.292Z,7.70
2018-09-02T03:47:51.844Z,12.23
2018-09-02T03:50:20.447Z,18.10
2018-09-02T03:52:49.056Z,11.47
2018-09-02T03:55:17.681Z,6.60
2018-09-02T03:57:46.368Z,6.03
2018-09-02T04:00:14.933Z,7.00
2018-09-02T04:02:43.494Z,7.07
2018-09-02T04:05:12.196Z,4.50
2018-09-02T04:07:40.776Z,9.17
2018-09-02T04:10:09.375Z,10.87
2018-09-02T04:12:38.052Z,7.60
2018-09-02T04:15:07.379Z,15.10
2018-09-02T04:17:35.944Z,8.90
2018-09-02T04:20:04.899Z,8.83
2018-09-02T04:22:33.475Z,10.90
2018-09-02T04:25:02.043Z,12.47
2018-09-02T04:27:30.792Z,7.27
2018-09-02T04:29:59.354Z,10.47
2018-09-02T04:32:27.915Z,10.13
2018-09-02T04:34:56.923Z,15.80
2018-09-02T04:37:25.507Z,8.67
2018-09-02T04:39:54.135Z,11.33
2018-09-02T04:42:23.059Z,10.10
2018-09-02T04:44:51.607Z,12.10
2018-09-02T04:47:20.161Z,6.17
2018-09-02T04:49:48.831Z,5.90
2018-09-02T04:52:17.399Z,8.63
2018-09-02T04:54:45.959Z,8.73
2018-09-02T04:57:14.891Z,7.27
2018-09-02T04:59:43.444Z,12.57
2018-09-02T05:02:12.040Z,8.93
2018-09-02T05:04:41.063Z,16.03
2018-09-02T05:07:09.608Z,8.83
2018-09-02T05:09:38.163Z,10.57
2018-09-02T05:12:07.223Z,9.23
2018-09-02T05:14:35.775Z,6.30
2018-09-02T05:17:04.586Z,6.40
2018-09-02T05:19:33.249Z,6.20
2018-09-02T05:22:01.874Z,9.93
2018-09-02T05:24:30.427Z,7.73
2018-09-02T05:26:59.023Z,8.43
2018-09-02T05:29:27.722Z,6.20
2018-09-02T05:31:56.275Z,13.27
2018-09-02T05:34:24.953Z,12.53
2018-09-02T05:36:53.584Z,6.07
2018-09-02T05:39:22.139Z,8.70
2018-09-02T05:41:51.156Z,12.13
2018-09-02T05:44:19.715Z,11.80
2018-09-02T05:46:48.280Z,8.23
2018-09-02T05:49:17.193Z,17.60
2018-09-02T05:51:45.752Z,14.90
2018-09-02T05:54:14.487Z,11.93
2018-09-02T05:56:43.398Z,11.30
2018-09-02T05:59:12.009Z,10.43
2018-09-02T06:01:40.579Z,12.10
2018-09-02T06:04:09.166Z,9.67
2018-09-02T06:06:37.743Z,13.87
2018-09-02T06:09:07.879Z,14.97
2018-09-02T06:11:36.663Z,13.00
2018-09-02T06:14:05.799Z,12.20
2018-09-02T06:16:34.380Z,21.87
2018-09-02T06:19:03.054Z,9.27
2018-09-02T06:21:31.608Z,10.67
2018-09-02T06:24:00.231Z,10.37
2018-09-02T06:26:29.083Z,15.13
2018-09-02T06:28:57.641Z,10.33
2018-09-02T06:31:26.213Z,18.50
2018-09-02T06:33:59.956Z,11.07
2018-09-02T06:36:33.364Z,14.23
2018-09-02T06:39:07.350Z,13.17
2018-09-02T06:41:38.977Z,10.87
2018-09-02T06:44:12.941Z,12.03
2018-09-02T06:46:43.405Z,10.43
2018-09-02T06:49:14.528Z,10.67
2018-09-02T06:51:44.919Z,10.80
2018-09-02T06:54:13.699Z,11.90
2018-09-02T06:56:47.354Z,14.83
2018-09-02T06:59:20.991Z,12.57
2018-09-02T07:01:53.593Z,17.03
2018-09-02T07:04:25.317Z,20.93
2018-09-02T07:06:57.237Z,13.03
2018-09-02T07:09:29.817Z,19.20
2018-09-02T07:12:03.178Z,17.47
2018-09-02T07:14:33.821Z,19.17
2018-09-02T07:17:07.190Z,13.00
2018-09-02T07:19:37.652Z,14.33
2018-09-02T07:22:07.472Z,14.43
2018-09-02T07:24:36.703Z,9.63
2018-09-02T07:27:07.124Z,13.90
2018-09-02T07:29:39.099Z,11.07
2018-09-02T07:32:07.668Z,16.00
2018-09-02T07:34:39.828Z,12.43
2018-09-02T07:37:09.723Z,14.80
2018-09-02T07:39:43.391Z,18.67
2018-09-02T07:42:13.359Z,9.60
2018-09-02T07:44:43.080Z,8.70
2018-09-02T07:47:12.327Z,13.33
2018-09-02T07:49:41.886Z,10.77
2018-09-02T07:52:11.891Z,16.50
2018-09-02T07:54:41.810Z,9.67
2018-09-02T07:57:12.370Z,14.60
2018-09-02T07:59:41.831Z,13.30
2018-09-02T08:02:11.796Z,11.40
2018-09-02T08:04:40.754Z,11.77
2018-09-02T08:07:10.442Z,22.37
2018-09-02T08:09:40.260Z,10.70
2018-09-02T08:12:11.714Z,11.90
2018-09-02T08:14:41.287Z,12.93
2018-09-02T08:17:11.858Z,23.23
2018-09-02T08:19:40.603Z,11.57
2018-09-02T08:22:09.172Z,11.40
2018-09-02T08:24:42.855Z,15.87
2018-09-02T08:27:16.088Z,15.87
2018-09-02T08:29:48.816Z,17.90
2018-09-02T08:32:19.816Z,14.40
2018-09-02T08:34:53.910Z,13.00
2018-09-02T08:37:28.441Z,15.40
2018-09-02T08:40:01.151Z,15.90
2018-09-02T08:42:33.072Z,13.93
2018-09-02T08:45:05.326Z,13.60
2018-09-02T08:47:38.918Z,12.83
2018-09-02T08:50:13.267Z,13.50
2018-09-02T08:52:46.967Z,12.07
2018-09-02T08:55:23.445Z,16.10
2018-09-02T08:57:57.269Z,14.67
2018-09-02T09:00:31.829Z,14.17
2018-09-02T09:03:04.744Z,17.10
2018-09-02T09:05:33.508Z,21.27
2018-09-02T09:08:06.438Z,12.73
2018-09-02T09:10:35.947Z,14.77
2018-09-02T09:13:06.679Z,14.47
2018-09-02T09:15:40.095Z,12.90
2018-09-02T09:18:10.947Z,13.10
2018-09-02T09:20:44.215Z,13.57
2018-09-02T09:23:17.500Z,18.47
2018-09-02T09:25:49.013Z,18.70
2018-09-02T09:28:21.550Z,23.47
2018-09-02T09:30:55.251Z,14.60
2018-09-02T09:33:28.219Z,16.60
2018-09-02T09:35:59.619Z,17.83
2018-09-02T09:38:32.766Z,22.13
2018-09-02T09:41:05.191Z,22.67
2018-09-02T09:43:36.976Z,18.27
2018-09-02T09:46:09.759Z,21.70
2018-09-02T09:48:44.635Z,20.43
2018-09-02T09:51:14.853Z,13.80
2018-09-02T09:53:43.876Z,16.50
2018-09-02T09:56:12.432Z,17.07
2018-09-02T09:58:44.871Z,17.17
2018-09-02T10:01:13.479Z,15.70
2018-09-02T10:03:42.207Z,14.97
2018-09-02T10:06:10.788Z,14.37
2018-09-02T10:08:39.350Z,14.77
2018-09-02T10:11:07.992Z,15.43
2018-09-02T10:13:36.795Z,18.47
2018-09-02T10:16:05.401Z,20.63
2018-09-02T10:18:34.107Z,24.10
2018-09-02T10:21:03.175Z,18.07
2018-09-02T10:23:31.977Z,19.43
2018-09-02T10:26:01.007Z,13.90
2018-09-02T10:28:29.643Z,20.73
2018-09-02T10:30:58.195Z,21.57
2018-09-02T10:33:26.836Z,19.63
2018-09-02T10:35:55.803Z,14.20
2018-09-02T10:38:24.386Z,18.23
2018-09-02T10:40:52.952Z,17.23
2018-09-02T10:43:21.631Z,24.97
2018-09-02T10:45:50.219Z,25.37
2018-09-02T10:48:18.780Z,15.20
2018-09-02T10:50:47.383Z,24.47
2018-09-02T10:53:15.935Z,16.63
2018-09-02T10:55:44.512Z,15.93
2018-09-02T10:58:13.199Z,14.20
2018-09-02T11:00:41.764Z,20.50
2018-09-02T11:03:10.327Z,14.67
2018-09-02T11:05:38.923Z,17.70
2018-09-02T11:08:07.494Z,20.13
2018-09-02T11:10:36.055Z,14.10
2018-09-02T11:13:04.790Z,9.33
2018-09-02T11:15:33.391Z,11.00
2018-09-02T11:18:02.036Z,11.10
2018-09-02T11:20:30.713Z,13.03
2018-09-02T11:22:59.272Z,11.57
2018-09-02T11:25:27.831Z,14.60
2018-09-02T11:27:56.427Z,8.90
2018-09-02T11:30:25.011Z,9.97
2018-09-02T11:32:53.656Z,6.93
2018-09-02T11:35:22.302Z,8.30
2018-09-02T11:37:50.856Z,9.07
2018-09-02T11:40:19.413Z,7.43
2018-09-02T11:42:47.997Z,9.60
2018-09-02T11:45:16.647Z,9.77
2018-09-02T11:47:45.564Z,7.33
2018-09-02T11:50:14.230Z,7.27
2018-09-02T11:52:42.788Z,10.93
2018-09-02T11:55:11.352Z,8.00
2018-09-02T11:57:40.150Z,6.17
2018-09-02T12:00:08.807Z,10.03
2018-09-02T12:02:37.375Z,10.00
2018-09-02T12:05:06.027Z,9.80
2018-09-02T12:07:35.180Z,7.80
2018-09-02T12:10:03.827Z,6.50
2018-09-02T12:12:32.420Z,9.83
2018-09-02T12:15:01.021Z,6.00
2018-09-02T12:17:29.589Z,9.57
2018-09-02T12:19:58.171Z,6.20
2018-09-02T12:22:26.719Z,7.00
2018-09-02T12:24:55.271Z,7.77
2018-09-02T12:27:23.951Z,8.30
2018-09-02T12:29:52.510Z,10.13
2018-09-02T12:32:21.052Z,6.73
2018-09-02T12:34:49.745Z,8.40
2018-09-02T12:37:18.391Z,12.90
2018-09-02T12:39:46.940Z,11.27
2018-09-02T12:42:15.621Z,8.03
2018-09-02T12:44:44.167Z,6.30
2018-09-02T12:47:12.744Z,10.20
2018-09-02T12:49:41.331Z,9.80
2018-09-02T12:52:09.895Z,10.57
2018-09-02T12:54:38.439Z,8.67
2018-09-02T12:57:07.019Z,10.73
2018-09-02T12:59:35.572Z,17.80
2018-09-02T13:02:04.143Z,9.63
2018-09-02T13:04:32.827Z,9.40
2018-09-02T13:07:01.387Z,11.40
2018-09-02T13:09:29.985Z,10.17
2018-09-02T13:11:58.632Z,10.83
2018-09-02T13:14:27.195Z,10.27
2018-09-02T13:16:56.683Z,11.83
2018-09-02T13:19:25.425Z,10.47
2018-09-02T13:21:54.011Z,11.03
2018-09-02T13:24:22.572Z,12.23
2018-09-02T13:26:51.379Z,11.53
2018-09-02T13:29:20.019Z,12.10
2018-09-02T13:31:48.711Z,11.20
2018-09-02T13:34:17.548Z,11.20
2018-09-02T13:36:46.191Z,11.40
2018-09-02T13:39:14.751Z,11.77
2018-09-02T13:41:43.404Z,12.60
2018-09-02T13:44:12.009Z,12.80
2018-09-02T13:46:40.559Z,10.23
2018-09-02T13:49:09.139Z,15.10
2018-09-02T13:51:37.784Z,14.47
2018-09-02T13:54:06.284Z,13.93
2018-09-02T13:56:34.876Z,14.10
2018-09-02T13:59:03.436Z,16.20
2018-09-02T14:01:31.995Z,15.20
2018-09-02T14:04:00.611Z,14.40
2018-09-02T14:06:29.203Z,14.67
2018-09-02T14:08:57.775Z,19.10
2018-09-02T14:11:26.396Z,16.03
2018-09-02T14:13:54.966Z,15.03
2018-09-02T14:16:23.524Z,12.00
2018-09-02T14:18:52.212Z,15.47
2018-09-02T14:21:20.831Z,12.77
2018-09-02T14:23:49.404Z,16.37
2018-09-02T14:26:19.250Z,18.70
2018-09-02T14:28:47.814Z,15.53
2018-09-02T14:31:16.395Z,18.50
2018-09-02T14:33:45.011Z,16.77
2018-09-02T14:36:13.607Z,16.33
2018-09-02T14:38:42.171Z,23.47
2018-09-02T14:41:11.056Z,29.17
2018-09-02T14:43:39.619Z,21.03
2018-09-02T14:46:08.799Z,18.93
2018-09-02T14:48:37.884Z,15.27
2018-09-02T14:51:06.499Z,15.90
2018-09-02T14:53:35.057Z,16.00
2018-09-02T14:56:03.760Z,17.43
2018-09-02T14:58:32.399Z,13.80
2018-09-02T15:01:01.044Z,14.30
2018-09-02T15:03:29.714Z,14.17
2018-09-02T15:05:58.287Z,14.53
2018-09-02T15:08:26.855Z,14.23
2018-09-02T15:10:55.559Z,13.37
2018-09-02T15:13:24.199Z,19.13
2018-09-02T15:15:52.795Z,12.80
2018-09-02T15:18:21.672Z,13.90
2018-09-02T15:20:50.227Z,15.03
2018-09-02T15:23:18.792Z,17.63
2018-09-02T15:25:47.395Z,18.50
2018-09-02T15:28:15.980Z,41.17
2018-09-02T15:30:44.643Z,30.27
2018-09-02T15:33:13.339Z,28.43
2018-09-02T15:35:41.903Z,21.50
2018-09-02T15:38:10.737Z,27.97
2018-09-02T15:40:39.411Z,19.00
2018-09-02T15:43:08.079Z,16.77
2018-09-02T15:45:36.637Z,19.03
2018-09-02T15:48:05.583Z,19.40
2018-09-02T15:50:34.217Z,18.17
2018-09-02T15:53:03.126Z,20.57
2018-09-02T15:55:32.330Z,18.67
2018-09-02T15:58:01.462Z,17.13
2018-09-02T16:00:30.519Z,19.40
2018-09-02T16:02:59.612Z,18.63
2018-09-02T16:05:28.652Z,18.47
2018-09-02T16:07:57.744Z,20.47
2018-09-02T16:10:26.841Z,21.73
2018-09-02T16:12:55.939Z,21.33
2018-09-02T16:15:24.959Z,23.13
2018-09-02T16:17:54.052Z,20.50
2018-09-02T16:20:22.625Z,28.80
2018-09-02T16:22:51.187Z,23.10
2018-09-02T16:25:19.843Z,25.67
2018-09-02T16:27:48.387Z,23.90
2018-09-02T16:30:17.144Z,20.33
2018-09-02T16:32:45.811Z,21.20
2018-09-02T16:35:14.379Z,20.13
2018-09-02T16:37:43.024Z,25.23
2018-09-02T16:40:11.678Z,28.80
2018-09-02T16:42:40.319Z,21.73
2018-09-02T16:45:08.983Z,25.63
2018-09-02T16:47:37.665Z,20.67
2018-09-02T16:50:06.915Z,21.20
2018-09-02T16:52:35.483Z,23.80
2018-09-02T16:55:04.199Z,21.10
2018-09-02T16:57:32.759Z,20.80
2018-09-02T17:00:01.316Z,23.63
2018-09-02T17:02:29.904Z,20.80
2018-09-02T17:05:02.295Z,22.80
2018-09-02T17:07:31.428Z,25.95
2018-09-02T17:10:00.076Z,19.83
2018-09-02T17:12:28.720Z,27.53
2018-09-02T17:14:57.528Z,22.97
2018-09-02T17:17:26.163Z,29.40
2018-09-02T17:19:56.931Z,19.97
2018-09-02T17:22:25.523Z,22.03
2018-09-02T17:24:54.149Z,31.03
2018-09-02T17:27:22.839Z,24.10
2018-09-02T17:29:51.400Z,23.50
2018-09-02T17:32:21.528Z,27.93
2018-09-02T17:34:50.143Z,23.90
2018-09-02T17:37:18.739Z,23.03
2018-09-02T17:39:47.307Z,22.73
2018-09-02T17:42:16.249Z,22.47
2018-09-02T17:44:44.804Z,20.47
2018-09-02T17:47:13.375Z,20.13
2018-09-02T17:49:41.976Z,24.60
2018-09-02T17:52:10.540Z,27.00
2018-09-02T17:54:39.177Z,21.30
2018-09-02T17:57:08.255Z,23.00
2018-09-02T17:59:36.814Z,21.77
2018-09-02T18:02:05.566Z,26.00
2018-09-02T18:04:34.168Z,21.57
2018-09-02T18:07:02.783Z,22.50
2018-09-02T18:09:31.351Z,18.80
2018-09-02T18:12:00.171Z,25.23
2018-09-02T18:14:28.733Z,20.90
2018-09-02T18:16:57.290Z,24.40
2018-09-02T18:19:25.888Z,23.73
2018-09-02T18:21:54.463Z,26.60
2018-09-02T18:24:23.027Z,22.70
2018-09-02T18:26:51.987Z,26.60
2018-09-02T18:29:20.552Z,27.93
2018-09-02T18:31:49.128Z,23.87
2018-09-02T18:34:17.720Z,26.03
2018-09-02T18:36:46.364Z,23.60
2018-09-02T18:39:15.010Z,31.70
2018-09-02T18:41:43.573Z,28.50
2018-09-02T18:44:12.140Z,27.97
2018-09-02T18:46:40.791Z,26.40
2018-09-02T18:49:10.007Z,32.33
2018-09-02T18:51:38.600Z,28.20
2018-09-02T18:54:07.215Z,24.07
2018-09-02T18:56:35.776Z,30.10
2018-09-02T18:59:05.707Z,24.00
2018-09-02T19:01:34.255Z,30.47
2018-09-02T19:04:02.936Z,26.13
2018-09-02T19:06:31.760Z,27.07
2018-09-02T19:09:00.316Z,28.83
2018-09-02T19:11:28.996Z,26.30
2018-09-02T19:13:57.564Z,24.70
2018-09-02T19:16:26.127Z,26.00
2018-09-02T19:18:54.860Z,26.50
2018-09-02T19:21:23.432Z,28.83
2018-09-02T19:23:52.019Z,29.40
2018-09-02T19:26:20.696Z,26.90
2018-09-02T19:28:49.264Z,26.23
2018-09-02T19:31:17.836Z,29.77
2018-09-02T19:33:46.495Z,24.63
2018-09-02T19:36:15.052Z,30.87
2018-09-02T19:38:43.763Z,26.07
2018-09-02T19:41:12.359Z,26.40
2018-09-02T19:43:40.916Z,27.27
2018-09-02T19:46:09.483Z,32.03
2018-09-02T19:48:38.431Z,30.50
2018-09-02T19:51:07.330Z,34.37
2018-09-02T19:53:36.541Z,28.27
2018-09-02T19:56:05.403Z,41.93
2018-09-02T19:58:33.968Z,27.90
2018-09-02T20:01:02.555Z,32.07
2018-09-02T20:03:31.303Z,26.17
2018-09-02T20:06:00.132Z,31.93
2018-09-02T20:08:28.688Z,27.27
2018-09-02T20:10:57.296Z,30.77
2018-09-02T20:13:25.863Z,34.20
2018-09-02T20:15:54.419Z,34.67
2018-09-02T20:18:23.143Z,40.27
2018-09-02T20:20:51.766Z,45.70
2018-09-02T20:23:20.342Z,50.27
2018-09-02T20:25:49.283Z,43.53
2018-09-02T20:28:17.876Z,43.60
2018-09-02T20:31:07.412Z,40.67
2018-09-02T20:33:56.143Z,39.00
2018-09-02T20:36:47.226Z,31.70
2018-09-02T20:42:30.104Z,29.03
2018-09-02T20:45:14.656Z,29.80
2018-09-02T20:47:43.789Z,37.47
2018-09-02T20:50:12.346Z,29.20
2018-09-02T20:52:41.020Z,31.67
2018-09-02T20:55:09.627Z,33.73
2018-09-02T20:57:38.288Z,34.57
2018-09-02T21:00:07.525Z,34.00
2018-09-02T21:02:36.400Z,30.20
2018-09-02T21:05:05.059Z,32.83
2018-09-02T21:07:33.637Z,29.03
2018-09-02T21:10:02.335Z,33.93
2018-09-02T21:12:30.916Z,33.00
2018-09-02T21:14:59.534Z,31.57
2018-09-02T21:17:28.418Z,29.43
2018-09-02T21:19:56.983Z,29.93
2018-09-02T21:22:25.543Z,29.80
2018-09-02T21:24:54.251Z,30.77
2018-09-02T21:27:22.822Z,32.00
2018-09-02T21:29:51.388Z,32.43
2018-09-02T21:32:20.175Z,38.97
2018-09-02T21:34:48.734Z,34.33
2018-09-02T21:37:17.336Z,36.43
2018-09-02T21:39:46.670Z,33.17
2018-09-02T21:42:15.251Z,33.17
2018-09-02T21:44:43.959Z,29.53
2018-09-02T21:47:12.556Z,38.00
2018-09-02T21:49:41.124Z,35.70
2018-09-02T21:52:09.724Z,30.00
2018-09-02T21:54:38.307Z,35.13
2018-09-02T21:57:06.879Z,38.37
2018-09-02T21:59:35.868Z,36.07
2018-09-02T22:02:04.563Z,33.17
2018-09-02T22:04:33.701Z,36.60
2018-09-02T22:07:02.292Z,33.57
2018-09-02T22:09:30.879Z,34.47
2018-09-02T22:11:59.448Z,41.10
2018-09-02T22:14:28.036Z,36.17
2018-09-02T22:16:56.635Z,38.50
2018-09-02T22:19:25.219Z,40.60
2018-09-02T22:21:53.799Z,39.83
2018-09-02T22:24:22.656Z,30.37
2018-09-02T22:26:51.242Z,36.77
2018-09-02T22:29:19.880Z,36.63
2018-09-02T22:31:48.540Z,42.73
2018-09-02T22:34:17.314Z,45.03
2018-09-02T22:36:45.883Z,41.80
2018-09-02T22:39:14.695Z,39.27
2018-09-02T22:41:43.412Z,47.40
2018-09-02T22:44:12.176Z,38.67
2018-09-02T22:46:40.880Z,37.40
2018-09-02T22:49:09.541Z,47.00
2018-09-02T22:51:38.133Z,44.50
2018-09-02T22:54:06.832Z,53.10
2018-09-02T22:56:35.473Z,48.70
2018-09-02T22:59:04.072Z,46.93
2018-09-02T23:01:32.776Z,48.70
2018-09-02T23:04:01.381Z,51.73
2018-09-02T23:06:29.967Z,51.10
2018-09-02T23:08:59.029Z,50.77
2018-09-02T23:11:27.632Z,47.37
2018-09-02T23:13:56.216Z,52.07
2018-09-02T23:16:25.075Z,48.47
2018-09-02T23:18:53.651Z,44.50
2018-09-02T23:21:22.251Z,45.80
2018-09-02T23:23:50.924Z,52.57
2018-09-02T23:26:19.552Z,49.57
2018-09-02T23:28:48.203Z,54.27
2018-09-02T23:31:17.111Z,50.70
2018-09-02T23:33:45.800Z,48.40
2018-09-02T23:36:14.384Z,55.40
2018-09-02T23:38:43.155Z,52.77
2018-09-02T23:41:11.739Z,56.17
2018-09-02T23:43:41.119Z,53.20
2018-09-02T23:46:09.844Z,57.03
2018-09-02T23:48:38.688Z,61.10
2018-09-02T23:51:07.267Z,49.50
2018-09-02T23:53:36.184Z,54.23
2018-09-02T23:56:05.120Z,56.23
2018-09-02T23:58:33.835Z,57.57
